sensor_id;sensor_type;location;lat;lon;timestamp;temperature;humidity
360;DHT22;168;48.872;9.226;2023-04-15T00:00:21;7.30;96.30
360;DHT22;168;48.872;9.226;2023-04-15T00:02:49;7.30;96.30
360;DHT22;168;48.872;9.226;2023-04-15T00:05:18;7.30;96.30
360;DHT22;168;48.872;9.226;2023-04-15T00:07:45;7.30;96.40
360;DHT22;168;48.872;9.226;2023-04-15T00:10:13;7.20;96.50
360;DHT22;168;48.872;9.226;2023-04-15T00:12:40;7.20;96.60
360;DHT22;168;48.872;9.226;2023-04-15T00:15:08;7.20;96.50
360;DHT22;168;48.872;9.226;2023-04-15T00:17:37;7.20;96.60
360;DHT22;168;48.872;9.226;2023-04-15T00:20:05;7.10;96.70
360;DHT22;168;48.872;9.226;2023-04-15T00:22:34;7.20;96.70
360;DHT22;168;48.872;9.226;2023-04-15T00:25:02;7.10;96.80
360;DHT22;168;48.872;9.226;2023-04-15T00:27:29;7.10;96.90
360;DHT22;168;48.872;9.226;2023-04-15T00:29:57;7.00;96.90
360;DHT22;168;48.872;9.226;2023-04-15T00:32:24;7.00;97.00
360;DHT22;168;48.872;9.226;2023-04-15T00:34:51;7.00;97.00
360;DHT22;168;48.872;9.226;2023-04-15T00:37:19;6.90;97.20
360;DHT22;168;48.872;9.226;2023-04-15T00:39:48;6.90;97.30
360;DHT22;168;48.872;9.226;2023-04-15T00:42:15;6.90;97.30
360;DHT22;168;48.872;9.226;2023-04-15T00:44:43;6.80;97.30
360;DHT22;168;48.872;9.226;2023-04-15T00:47:11;6.80;97.40
360;DHT22;168;48.872;9.226;2023-04-15T00:49:39;6.80;97.40
360;DHT22;168;48.872;9.226;2023-04-15T00:52:07;6.80;97.40
360;DHT22;168;48.872;9.226;2023-04-15T00:54:35;6.80;97.40
360;DHT22;168;48.872;9.226;2023-04-15T00:57:05;6.80;97.40
360;DHT22;168;48.872;9.226;2023-04-15T00:59:35;6.70;97.40
360;DHT22;168;48.872;9.226;2023-04-15T01:02:02;6.80;97.50
360;DHT22;168;48.872;9.226;2023-04-15T01:04:29;6.70;97.40
360;DHT22;168;48.872;9.226;2023-04-15T01:06:57;6.70;97.50
360;DHT22;168;48.872;9.226;2023-04-15T01:09:25;6.60;97.50
360;DHT22;168;48.872;9.226;2023-04-15T01:11:52;6.60;97.60
360;DHT22;168;48.872;9.226;2023-04-15T01:14:21;6.50;97.60
360;DHT22;168;48.872;9.226;2023-04-15T01:16:48;6.60;97.60
360;DHT22;168;48.872;9.226;2023-04-15T01:19:16;6.50;97.70
360;DHT22;168;48.872;9.226;2023-04-15T01:21:44;6.40;97.80
360;DHT22;168;48.872;9.226;2023-04-15T01:24:12;6.40;97.80
360;DHT22;168;48.872;9.226;2023-04-15T01:26:43;6.30;97.80
360;DHT22;168;48.872;9.226;2023-04-15T01:29:11;6.30;97.80
360;DHT22;168;48.872;9.226;2023-04-15T01:31:39;6.30;97.80
360;DHT22;168;48.872;9.226;2023-04-15T01:34:06;6.30;97.80
360;DHT22;168;48.872;9.226;2023-04-15T01:36:33;6.30;97.80
360;DHT22;168;48.872;9.226;2023-04-15T01:39:01;6.20;97.80
360;DHT22;168;48.872;9.226;2023-04-15T01:41:30;6.20;97.80
360;DHT22;168;48.872;9.226;2023-04-15T01:43:59;6.20;97.70
360;DHT22;168;48.872;9.226;2023-04-15T01:46:26;6.30;97.80
360;DHT22;168;48.872;9.226;2023-04-15T01:48:54;6.20;97.80
360;DHT22;168;48.872;9.226;2023-04-15T01:51:21;6.20;97.80
360;DHT22;168;48.872;9.226;2023-04-15T01:53:48;6.20;97.80
360;DHT22;168;48.872;9.226;2023-04-15T01:56:17;6.20;97.80
360;DHT22;168;48.872;9.226;2023-04-15T01:58:44;6.10;97.80
360;DHT22;168;48.872;9.226;2023-04-15T02:01:13;6.10;97.70
360;DHT22;168;48.872;9.226;2023-04-15T02:03:41;6.00;97.80
360;DHT22;168;48.872;9.226;2023-04-15T02:06:09;6.00;97.80
360;DHT22;168;48.872;9.226;2023-04-15T02:08:36;6.00;97.80
360;DHT22;168;48.872;9.226;2023-04-15T02:11:03;6.00;97.80
360;DHT22;168;48.872;9.226;2023-04-15T02:13:31;5.90;97.80
360;DHT22;168;48.872;9.226;2023-04-15T02:15:58;5.90;97.70
360;DHT22;168;48.872;9.226;2023-04-15T02:18:27;5.80;97.70
360;DHT22;168;48.872;9.226;2023-04-15T02:20:54;5.90;97.50
360;DHT22;168;48.872;9.226;2023-04-15T02:23:23;5.80;97.70
360;DHT22;168;48.872;9.226;2023-04-15T02:25:50;5.70;97.70
360;DHT22;168;48.872;9.226;2023-04-15T02:28:18;5.70;97.70
360;DHT22;168;48.872;9.226;2023-04-15T02:30:47;5.70;97.60
360;DHT22;168;48.872;9.226;2023-04-15T02:33:15;5.70;97.60
360;DHT22;168;48.872;9.226;2023-04-15T02:35:44;5.70;97.60
360;DHT22;168;48.872;9.226;2023-04-15T02:38:12;5.80;97.60
360;DHT22;168;48.872;9.226;2023-04-15T02:40:41;5.80;97.70
360;DHT22;168;48.872;9.226;2023-04-15T02:43:09;5.80;97.60
360;DHT22;168;48.872;9.226;2023-04-15T02:45:36;5.70;97.60
360;DHT22;168;48.872;9.226;2023-04-15T02:48:04;5.70;97.60
360;DHT22;168;48.872;9.226;2023-04-15T02:50:31;5.70;97.60
360;DHT22;168;48.872;9.226;2023-04-15T02:53:00;5.70;97.60
360;DHT22;168;48.872;9.226;2023-04-15T02:55:28;5.80;97.80
360;DHT22;168;48.872;9.226;2023-04-15T02:57:55;5.80;97.70
360;DHT22;168;48.872;9.226;2023-04-15T03:00:24;5.70;97.60
360;DHT22;168;48.872;9.226;2023-04-15T03:02:57;5.60;97.60
360;DHT22;168;48.872;9.226;2023-04-15T03:05:25;5.50;97.40
360;DHT22;168;48.872;9.226;2023-04-15T03:07:53;5.50;97.20
360;DHT22;168;48.872;9.226;2023-04-15T03:10:21;5.50;97.40
360;DHT22;168;48.872;9.226;2023-04-15T03:12:49;5.50;97.40
360;DHT22;168;48.872;9.226;2023-04-15T03:15:16;5.50;97.40
360;DHT22;168;48.872;9.226;2023-04-15T03:17:43;5.40;97.30
360;DHT22;168;48.872;9.226;2023-04-15T03:20:11;5.50;97.30
360;DHT22;168;48.872;9.226;2023-04-15T03:22:39;5.50;97.30
360;DHT22;168;48.872;9.226;2023-04-15T03:25:07;5.50;97.30
360;DHT22;168;48.872;9.226;2023-04-15T03:27:37;5.50;97.20
360;DHT22;168;48.872;9.226;2023-04-15T03:30:05;5.50;97.20
360;DHT22;168;48.872;9.226;2023-04-15T03:32:34;5.60;97.30
360;DHT22;168;48.872;9.226;2023-04-15T03:35:01;5.60;97.30
360;DHT22;168;48.872;9.226;2023-04-15T03:37:28;5.60;97.20
360;DHT22;168;48.872;9.226;2023-04-15T03:39:56;5.60;97.30
360;DHT22;168;48.872;9.226;2023-04-15T03:42:23;5.60;97.40
360;DHT22;168;48.872;9.226;2023-04-15T03:44:52;5.70;97.50
360;DHT22;168;48.872;9.226;2023-04-15T03:47:19;5.70;97.50
360;DHT22;168;48.872;9.226;2023-04-15T03:49:46;5.70;97.50
360;DHT22;168;48.872;9.226;2023-04-15T03:52:14;5.70;97.50
360;DHT22;168;48.872;9.226;2023-04-15T03:54:41;5.70;97.50
360;DHT22;168;48.872;9.226;2023-04-15T03:57:08;5.60;97.40
360;DHT22;168;48.872;9.226;2023-04-15T03:59:36;5.60;97.50
360;DHT22;168;48.872;9.226;2023-04-15T04:02:04;5.60;97.40
360;DHT22;168;48.872;9.226;2023-04-15T04:04:32;5.60;97.40
360;DHT22;168;48.872;9.226;2023-04-15T04:06:59;5.60;97.50
360;DHT22;168;48.872;9.226;2023-04-15T04:09:26;5.60;97.50
360;DHT22;168;48.872;9.226;2023-04-15T04:11:54;5.60;97.30
360;DHT22;168;48.872;9.226;2023-04-15T04:14:21;5.50;97.50
360;DHT22;168;48.872;9.226;2023-04-15T04:16:54;5.40;97.30
360;DHT22;168;48.872;9.226;2023-04-15T04:19:22;5.40;97.40
360;DHT22;168;48.872;9.226;2023-04-15T04:21:50;5.40;97.40
360;DHT22;168;48.872;9.226;2023-04-15T04:24:18;5.30;97.40
360;DHT22;168;48.872;9.226;2023-04-15T04:26:46;5.30;97.40
360;DHT22;168;48.872;9.226;2023-04-15T04:29:13;5.20;97.30
360;DHT22;168;48.872;9.226;2023-04-15T04:31:40;5.20;97.30
360;DHT22;168;48.872;9.226;2023-04-15T04:34:08;5.30;97.50
360;DHT22;168;48.872;9.226;2023-04-15T04:36:36;5.30;97.40
360;DHT22;168;48.872;9.226;2023-04-15T04:39:03;5.20;97.30
360;DHT22;168;48.872;9.226;2023-04-15T04:41:31;5.20;97.20
360;DHT22;168;48.872;9.226;2023-04-15T04:43:58;5.10;97.10
360;DHT22;168;48.872;9.226;2023-04-15T04:46:26;5.10;97.10
360;DHT22;168;48.872;9.226;2023-04-15T04:48:53;5.10;97.20
360;DHT22;168;48.872;9.226;2023-04-15T04:51:20;5.10;97.30
360;DHT22;168;48.872;9.226;2023-04-15T04:53:49;5.20;97.30
360;DHT22;168;48.872;9.226;2023-04-15T04:56:16;5.20;97.20
360;DHT22;168;48.872;9.226;2023-04-15T04:58:44;5.20;97.30
360;DHT22;168;48.872;9.226;2023-04-15T05:01:11;5.20;97.30
360;DHT22;168;48.872;9.226;2023-04-15T05:03:39;5.10;97.40
360;DHT22;168;48.872;9.226;2023-04-15T05:06:06;5.10;97.30
360;DHT22;168;48.872;9.226;2023-04-15T05:08:34;5.10;97.30
360;DHT22;168;48.872;9.226;2023-04-15T05:11:02;5.00;97.20
360;DHT22;168;48.872;9.226;2023-04-15T05:13:30;5.00;97.10
360;DHT22;168;48.872;9.226;2023-04-15T05:15:57;5.00;97.00
360;DHT22;168;48.872;9.226;2023-04-15T05:18:24;5.00;97.00
360;DHT22;168;48.872;9.226;2023-04-15T05:20:52;5.00;97.00
360;DHT22;168;48.872;9.226;2023-04-15T05:23:19;5.20;97.30
360;DHT22;168;48.872;9.226;2023-04-15T05:25:46;5.20;97.20
360;DHT22;168;48.872;9.226;2023-04-15T05:28:15;5.20;97.30
360;DHT22;168;48.872;9.226;2023-04-15T05:30:42;5.10;97.30
360;DHT22;168;48.872;9.226;2023-04-15T05:33:10;5.00;97.00
360;DHT22;168;48.872;9.226;2023-04-15T05:35:37;5.10;97.30
360;DHT22;168;48.872;9.226;2023-04-15T05:38:04;5.10;97.60
360;DHT22;168;48.872;9.226;2023-04-15T05:40:32;5.10;97.50
360;DHT22;168;48.872;9.226;2023-04-15T05:42:59;5.10;97.50
360;DHT22;168;48.872;9.226;2023-04-15T05:45:28;5.10;97.40
360;DHT22;168;48.872;9.226;2023-04-15T05:47:55;5.20;97.70
360;DHT22;168;48.872;9.226;2023-04-15T05:50:22;5.20;97.70
360;DHT22;168;48.872;9.226;2023-04-15T05:52:50;5.30;97.80
360;DHT22;168;48.872;9.226;2023-04-15T05:55:17;5.40;97.90
360;DHT22;168;48.872;9.226;2023-04-15T05:57:44;5.50;97.80
360;DHT22;168;48.872;9.226;2023-04-15T06:00:13;5.50;97.80
360;DHT22;168;48.872;9.226;2023-04-15T06:02:42;5.70;97.80
360;DHT22;168;48.872;9.226;2023-04-15T06:05:09;5.80;97.90
360;DHT22;168;48.872;9.226;2023-04-15T06:07:37;6.00;97.90
360;DHT22;168;48.872;9.226;2023-04-15T06:10:06;6.20;97.90
360;DHT22;168;48.872;9.226;2023-04-15T06:12:33;6.30;97.80
360;DHT22;168;48.872;9.226;2023-04-15T06:15:01;6.50;97.70
360;DHT22;168;48.872;9.226;2023-04-15T06:17:28;6.60;97.50
360;DHT22;168;48.872;9.226;2023-04-15T06:19:57;6.80;97.40
360;DHT22;168;48.872;9.226;2023-04-15T06:22:24;6.90;97.50
360;DHT22;168;48.872;9.226;2023-04-15T06:24:52;7.10;97.40
360;DHT22;168;48.872;9.226;2023-04-15T06:27:19;7.30;97.10
360;DHT22;168;48.872;9.226;2023-04-15T06:29:48;7.30;97.20
360;DHT22;168;48.872;9.226;2023-04-15T06:32:15;7.50;97.10
360;DHT22;168;48.872;9.226;2023-04-15T06:34:42;7.60;96.90
360;DHT22;168;48.872;9.226;2023-04-15T06:37:11;7.90;96.30
360;DHT22;168;48.872;9.226;2023-04-15T06:39:41;8.10;95.50
360;DHT22;168;48.872;9.226;2023-04-15T06:42:10;8.30;95.10
360;DHT22;168;48.872;9.226;2023-04-15T06:44:37;8.40;95.00
360;DHT22;168;48.872;9.226;2023-04-15T06:47:04;8.50;94.80
360;DHT22;168;48.872;9.226;2023-04-15T06:49:32;8.70;94.60
360;DHT22;168;48.872;9.226;2023-04-15T06:52:00;8.80;94.20
360;DHT22;168;48.872;9.226;2023-04-15T06:54:29;8.90;93.70
360;DHT22;168;48.872;9.226;2023-04-15T06:56:56;9.00;93.10
360;DHT22;168;48.872;9.226;2023-04-15T06:59:23;9.00;92.90
360;DHT22;168;48.872;9.226;2023-04-15T07:01:52;9.10;92.00
360;DHT22;168;48.872;9.226;2023-04-15T07:04:19;9.10;91.90
360;DHT22;168;48.872;9.226;2023-04-15T07:06:46;9.20;91.70
360;DHT22;168;48.872;9.226;2023-04-15T07:09:14;9.20;91.60
360;DHT22;168;48.872;9.226;2023-04-15T07:11:42;9.20;90.40
360;DHT22;168;48.872;9.226;2023-04-15T07:14:10;9.20;90.20
360;DHT22;168;48.872;9.226;2023-04-15T07:16:37;9.20;90.20
360;DHT22;168;48.872;9.226;2023-04-15T07:19:05;9.30;90.00
360;DHT22;168;48.872;9.226;2023-04-15T07:21:32;9.30;90.50
360;DHT22;168;48.872;9.226;2023-04-15T07:24:00;9.40;90.20
360;DHT22;168;48.872;9.226;2023-04-15T07:26:27;9.50;90.50
360;DHT22;168;48.872;9.226;2023-04-15T07:28:56;9.60;90.60
360;DHT22;168;48.872;9.226;2023-04-15T07:31:23;9.70;90.70
360;DHT22;168;48.872;9.226;2023-04-15T07:33:51;9.90;90.50
360;DHT22;168;48.872;9.226;2023-04-15T07:36:18;10.20;90.10
360;DHT22;168;48.872;9.226;2023-04-15T07:38:45;10.40;89.20
360;DHT22;168;48.872;9.226;2023-04-15T07:41:13;10.70;88.50
360;DHT22;168;48.872;9.226;2023-04-15T07:43:40;11.00;87.00
360;DHT22;168;48.872;9.226;2023-04-15T07:46:10;11.20;86.50
360;DHT22;168;48.872;9.226;2023-04-15T07:48:37;11.40;85.30
360;DHT22;168;48.872;9.226;2023-04-15T07:51:05;11.40;85.10
360;DHT22;168;48.872;9.226;2023-04-15T07:53:32;11.50;85.00
360;DHT22;168;48.872;9.226;2023-04-15T07:56:00;11.60;85.00
360;DHT22;168;48.872;9.226;2023-04-15T07:58:27;11.70;84.70
360;DHT22;168;48.872;9.226;2023-04-15T08:00:54;11.90;84.30
360;DHT22;168;48.872;9.226;2023-04-15T08:03:24;12.00;83.40
360;DHT22;168;48.872;9.226;2023-04-15T08:05:51;12.10;83.10
360;DHT22;168;48.872;9.226;2023-04-15T08:08:19;12.20;83.20
360;DHT22;168;48.872;9.226;2023-04-15T08:10:47;12.30;83.50
360;DHT22;168;48.872;9.226;2023-04-15T08:13:14;12.40;83.60
360;DHT22;168;48.872;9.226;2023-04-15T08:15:42;12.50;82.80
360;DHT22;168;48.872;9.226;2023-04-15T08:18:09;12.60;82.80
360;DHT22;168;48.872;9.226;2023-04-15T08:20:38;12.70;82.80
360;DHT22;168;48.872;9.226;2023-04-15T08:23:05;12.70;83.10
360;DHT22;168;48.872;9.226;2023-04-15T08:25:33;12.90;81.90
360;DHT22;168;48.872;9.226;2023-04-15T08:28:03;13.00;79.40
360;DHT22;168;48.872;9.226;2023-04-15T08:30:32;13.20;77.90
360;DHT22;168;48.872;9.226;2023-04-15T08:32:59;13.30;77.00
360;DHT22;168;48.872;9.226;2023-04-15T08:35:27;13.30;77.00
360;DHT22;168;48.872;9.226;2023-04-15T08:37:55;13.40;75.30
360;DHT22;168;48.872;9.226;2023-04-15T08:40:26;13.30;75.50
360;DHT22;168;48.872;9.226;2023-04-15T08:42:57;13.20;77.80
360;DHT22;168;48.872;9.226;2023-04-15T08:45:25;13.20;80.60
360;DHT22;168;48.872;9.226;2023-04-15T08:47:55;13.30;78.80
360;DHT22;168;48.872;9.226;2023-04-15T08:50:24;13.40;78.80
360;DHT22;168;48.872;9.226;2023-04-15T08:52:55;13.50;76.50
360;DHT22;168;48.872;9.226;2023-04-15T08:55:24;13.40;75.00
360;DHT22;168;48.872;9.226;2023-04-15T08:57:53;13.40;74.20
360;DHT22;168;48.872;9.226;2023-04-15T09:00:22;13.40;72.60
360;DHT22;168;48.872;9.226;2023-04-15T09:02:50;13.40;72.70
360;DHT22;168;48.872;9.226;2023-04-15T09:05:18;13.50;73.10
360;DHT22;168;48.872;9.226;2023-04-15T09:07:46;13.60;72.40
360;DHT22;168;48.872;9.226;2023-04-15T09:10:15;13.70;72.50
360;DHT22;168;48.872;9.226;2023-04-15T09:12:42;13.80;71.90
360;DHT22;168;48.872;9.226;2023-04-15T09:15:10;13.80;72.10
360;DHT22;168;48.872;9.226;2023-04-15T09:17:41;13.90;73.10
360;DHT22;168;48.872;9.226;2023-04-15T09:20:10;14.10;72.90
360;DHT22;168;48.872;9.226;2023-04-15T09:22:38;14.10;72.30
360;DHT22;168;48.872;9.226;2023-04-15T09:25:25;14.20;69.60
360;DHT22;168;48.872;9.226;2023-04-15T09:27:54;14.40;69.60
360;DHT22;168;48.872;9.226;2023-04-15T09:30:22;14.40;68.00
360;DHT22;168;48.872;9.226;2023-04-15T09:32:51;14.10;69.20
360;DHT22;168;48.872;9.226;2023-04-15T09:35:19;14.10;69.90
360;DHT22;168;48.872;9.226;2023-04-15T09:37:46;14.20;71.10
360;DHT22;168;48.872;9.226;2023-04-15T09:40:14;14.40;71.30
360;DHT22;168;48.872;9.226;2023-04-15T09:42:55;14.40;71.10
360;DHT22;168;48.872;9.226;2023-04-15T09:45:23;14.40;70.10
360;DHT22;168;48.872;9.226;2023-04-15T09:47:51;14.40;69.90
360;DHT22;168;48.872;9.226;2023-04-15T09:50:19;14.10;70.50
360;DHT22;168;48.872;9.226;2023-04-15T09:52:46;14.20;69.70
360;DHT22;168;48.872;9.226;2023-04-15T09:55:16;14.10;71.50
360;DHT22;168;48.872;9.226;2023-04-15T09:57:45;14.10;71.80
360;DHT22;168;48.872;9.226;2023-04-15T10:00:15;14.10;71.60
360;DHT22;168;48.872;9.226;2023-04-15T10:02:42;14.00;71.40
360;DHT22;168;48.872;9.226;2023-04-15T10:05:10;14.00;70.70
360;DHT22;168;48.872;9.226;2023-04-15T10:07:39;14.00;69.70
360;DHT22;168;48.872;9.226;2023-04-15T10:10:09;14.00;69.20
360;DHT22;168;48.872;9.226;2023-04-15T10:12:37;14.10;69.50
360;DHT22;168;48.872;9.226;2023-04-15T10:15:15;14.00;68.80
360;DHT22;168;48.872;9.226;2023-04-15T10:17:43;13.90;69.40
360;DHT22;168;48.872;9.226;2023-04-15T10:20:11;13.80;69.40
360;DHT22;168;48.872;9.226;2023-04-15T10:22:41;13.90;70.20
360;DHT22;168;48.872;9.226;2023-04-15T10:25:10;14.20;68.60
360;DHT22;168;48.872;9.226;2023-04-15T10:27:39;14.40;67.20
360;DHT22;168;48.872;9.226;2023-04-15T10:30:07;14.60;65.30
360;DHT22;168;48.872;9.226;2023-04-15T10:32:37;14.90;67.20
360;DHT22;168;48.872;9.226;2023-04-15T10:35:05;15.00;67.60
360;DHT22;168;48.872;9.226;2023-04-15T10:37:35;15.00;68.10
360;DHT22;168;48.872;9.226;2023-04-15T10:40:25;14.50;66.60
360;DHT22;168;48.872;9.226;2023-04-15T10:42:54;14.10;68.00
360;DHT22;168;48.872;9.226;2023-04-15T10:45:21;14.00;68.80
360;DHT22;168;48.872;9.226;2023-04-15T10:47:55;14.00;69.00
360;DHT22;168;48.872;9.226;2023-04-15T10:50:25;14.10;69.20
360;DHT22;168;48.872;9.226;2023-04-15T10:52:53;14.20;69.80
360;DHT22;168;48.872;9.226;2023-04-15T10:55:23;14.30;69.30
360;DHT22;168;48.872;9.226;2023-04-15T10:57:52;14.40;69.00
360;DHT22;168;48.872;9.226;2023-04-15T11:00:23;14.50;68.90
360;DHT22;168;48.872;9.226;2023-04-15T11:02:55;14.50;66.40
360;DHT22;168;48.872;9.226;2023-04-15T11:05:50;14.60;67.50
360;DHT22;168;48.872;9.226;2023-04-15T11:08:18;14.70;66.80
360;DHT22;168;48.872;9.226;2023-04-15T11:10:51;14.80;67.20
360;DHT22;168;48.872;9.226;2023-04-15T11:13:22;14.90;66.20
360;DHT22;168;48.872;9.226;2023-04-15T11:15:55;14.90;67.70
360;DHT22;168;48.872;9.226;2023-04-15T11:18:26;15.10;68.10
360;DHT22;168;48.872;9.226;2023-04-15T11:20:56;15.00;68.10
360;DHT22;168;48.872;9.226;2023-04-15T11:23:29;14.90;68.20
360;DHT22;168;48.872;9.226;2023-04-15T11:25:57;15.00;67.20
360;DHT22;168;48.872;9.226;2023-04-15T11:28:25;14.90;67.60
360;DHT22;168;48.872;9.226;2023-04-15T11:30:54;14.90;68.30
360;DHT22;168;48.872;9.226;2023-04-15T11:33:22;14.80;66.60
360;DHT22;168;48.872;9.226;2023-04-15T11:35:56;14.70;68.80
360;DHT22;168;48.872;9.226;2023-04-15T11:38:23;14.60;67.50
360;DHT22;168;48.872;9.226;2023-04-15T11:40:51;14.90;66.10
360;DHT22;168;48.872;9.226;2023-04-15T11:43:20;15.30;66.30
360;DHT22;168;48.872;9.226;2023-04-15T11:45:50;15.10;66.60
360;DHT22;168;48.872;9.226;2023-04-15T11:48:18;15.10;67.00
360;DHT22;168;48.872;9.226;2023-04-15T11:50:51;15.20;66.40
360;DHT22;168;48.872;9.226;2023-04-15T11:53:20;15.20;64.20
360;DHT22;168;48.872;9.226;2023-04-15T11:55:50;15.10;63.70
360;DHT22;168;48.872;9.226;2023-04-15T11:58:19;14.40;68.00
360;DHT22;168;48.872;9.226;2023-04-15T12:00:48;13.90;73.20
360;DHT22;168;48.872;9.226;2023-04-15T12:03:22;13.60;73.10
360;DHT22;168;48.872;9.226;2023-04-15T12:06:12;13.50;71.60
360;DHT22;168;48.872;9.226;2023-04-15T12:09:02;13.60;72.90
360;DHT22;168;48.872;9.226;2023-04-15T12:11:32;13.80;70.50
360;DHT22;168;48.872;9.226;2023-04-15T12:14:04;13.90;71.10
360;DHT22;168;48.872;9.226;2023-04-15T12:16:33;14.00;70.70
360;DHT22;168;48.872;9.226;2023-04-15T12:19:04;14.00;69.90
360;DHT22;168;48.872;9.226;2023-04-15T12:21:33;13.20;73.90
360;DHT22;168;48.872;9.226;2023-04-15T12:24:04;12.40;83.00
360;DHT22;168;48.872;9.226;2023-04-15T12:26:35;11.70;90.80
360;DHT22;168;48.872;9.226;2023-04-15T12:29:05;11.00;93.70
360;DHT22;168;48.872;9.226;2023-04-15T12:31:33;10.50;95.30
360;DHT22;168;48.872;9.226;2023-04-15T12:34:01;10.30;96.70
360;DHT22;168;48.872;9.226;2023-04-15T12:36:31;10.00;96.30
360;DHT22;168;48.872;9.226;2023-04-15T12:39:03;9.80;96.10
360;DHT22;168;48.872;9.226;2023-04-15T12:41:31;9.60;96.20
360;DHT22;168;48.872;9.226;2023-04-15T12:43:58;9.50;96.30
360;DHT22;168;48.872;9.226;2023-04-15T12:46:26;9.50;95.90
360;DHT22;168;48.872;9.226;2023-04-15T12:48:53;9.60;95.80
360;DHT22;168;48.872;9.226;2023-04-15T12:51:20;9.80;91.40
360;DHT22;168;48.872;9.226;2023-04-15T12:58:56;10.30;91.60
360;DHT22;168;48.872;9.226;2023-04-15T13:01:23;10.50;92.20
360;DHT22;168;48.872;9.226;2023-04-15T13:03:51;10.80;88.70
360;DHT22;168;48.872;9.226;2023-04-15T13:06:18;11.10;89.10
360;DHT22;168;48.872;9.226;2023-04-15T13:08:49;11.40;87.50
360;DHT22;168;48.872;9.226;2023-04-15T13:11:19;11.70;82.70
360;DHT22;168;48.872;9.226;2023-04-15T13:13:47;11.80;81.60
360;DHT22;168;48.872;9.226;2023-04-15T13:16:16;12.00;79.50
360;DHT22;168;48.872;9.226;2023-04-15T13:18:44;12.10;79.10
360;DHT22;168;48.872;9.226;2023-04-15T13:21:12;12.20;77.40
360;DHT22;168;48.872;9.226;2023-04-15T13:23:40;12.30;78.50
360;DHT22;168;48.872;9.226;2023-04-15T13:26:07;12.40;77.60
360;DHT22;168;48.872;9.226;2023-04-15T13:28:35;12.60;76.00
360;DHT22;168;48.872;9.226;2023-04-15T13:31:05;12.70;75.60
360;DHT22;168;48.872;9.226;2023-04-15T13:33:39;12.90;73.90
360;DHT22;168;48.872;9.226;2023-04-15T13:36:09;13.00;69.60
360;DHT22;168;48.872;9.226;2023-04-15T13:38:40;13.10;66.70
360;DHT22;168;48.872;9.226;2023-04-15T13:41:08;13.20;63.30
360;DHT22;168;48.872;9.226;2023-04-15T13:43:35;12.90;62.90
360;DHT22;168;48.872;9.226;2023-04-15T13:46:05;12.80;64.20
360;DHT22;168;48.872;9.226;2023-04-15T13:48:37;12.80;63.90
360;DHT22;168;48.872;9.226;2023-04-15T13:51:05;12.80;63.00
360;DHT22;168;48.872;9.226;2023-04-15T13:53:35;12.70;64.70
360;DHT22;168;48.872;9.226;2023-04-15T13:56:05;12.80;63.80
360;DHT22;168;48.872;9.226;2023-04-15T13:58:35;12.80;63.70
360;DHT22;168;48.872;9.226;2023-04-15T14:01:04;12.80;62.00
360;DHT22;168;48.872;9.226;2023-04-15T14:03:32;12.90;61.30
360;DHT22;168;48.872;9.226;2023-04-15T14:06:00;12.90;61.60
360;DHT22;168;48.872;9.226;2023-04-15T14:08:29;12.90;62.40
360;DHT22;168;48.872;9.226;2023-04-15T14:10:56;12.80;64.30
360;DHT22;168;48.872;9.226;2023-04-15T14:13:24;12.80;64.70
360;DHT22;168;48.872;9.226;2023-04-15T14:15:51;12.60;64.10
360;DHT22;168;48.872;9.226;2023-04-15T14:18:19;12.50;65.10
360;DHT22;168;48.872;9.226;2023-04-15T14:20:46;12.60;65.70
360;DHT22;168;48.872;9.226;2023-04-15T14:23:15;12.60;65.50
360;DHT22;168;48.872;9.226;2023-04-15T14:25:43;12.50;65.30
360;DHT22;168;48.872;9.226;2023-04-15T14:28:10;12.50;65.40
360;DHT22;168;48.872;9.226;2023-04-15T14:30:37;12.40;66.00
360;DHT22;168;48.872;9.226;2023-04-15T14:33:05;12.40;66.80
360;DHT22;168;48.872;9.226;2023-04-15T14:35:32;12.60;66.90
360;DHT22;168;48.872;9.226;2023-04-15T14:38:00;12.70;66.00
360;DHT22;168;48.872;9.226;2023-04-15T14:40:28;12.70;65.90
360;DHT22;168;48.872;9.226;2023-04-15T14:42:56;12.80;65.40
360;DHT22;168;48.872;9.226;2023-04-15T14:45:23;12.80;65.20
360;DHT22;168;48.872;9.226;2023-04-15T14:47:51;12.70;65.00
360;DHT22;168;48.872;9.226;2023-04-15T14:50:18;12.70;63.10
360;DHT22;168;48.872;9.226;2023-04-15T14:52:46;12.70;63.90
360;DHT22;168;48.872;9.226;2023-04-15T14:55:13;12.50;64.00
360;DHT22;168;48.872;9.226;2023-04-15T14:57:42;12.30;64.80
360;DHT22;168;48.872;9.226;2023-04-15T15:00:10;12.20;66.70
360;DHT22;168;48.872;9.226;2023-04-15T15:02:38;12.00;68.00
360;DHT22;168;48.872;9.226;2023-04-15T15:05:08;11.70;69.20
360;DHT22;168;48.872;9.226;2023-04-15T15:07:36;11.60;70.20
360;DHT22;168;48.872;9.226;2023-04-15T15:10:05;11.60;70.40
360;DHT22;168;48.872;9.226;2023-04-15T15:12:32;11.60;71.00
360;DHT22;168;48.872;9.226;2023-04-15T15:15:02;11.80;70.40
360;DHT22;168;48.872;9.226;2023-04-15T15:17:29;11.80;70.80
360;DHT22;168;48.872;9.226;2023-04-15T15:19:57;11.90;70.40
360;DHT22;168;48.872;9.226;2023-04-15T15:22:24;11.90;71.20
360;DHT22;168;48.872;9.226;2023-04-15T15:24:52;11.90;71.00
360;DHT22;168;48.872;9.226;2023-04-15T15:27:19;11.90;71.70
360;DHT22;168;48.872;9.226;2023-04-15T15:29:46;11.90;72.30
360;DHT22;168;48.872;9.226;2023-04-15T15:32:15;11.90;71.70
360;DHT22;168;48.872;9.226;2023-04-15T15:34:42;11.90;72.50
360;DHT22;168;48.872;9.226;2023-04-15T15:37:10;11.90;72.90
360;DHT22;168;48.872;9.226;2023-04-15T15:39:37;11.80;73.10
360;DHT22;168;48.872;9.226;2023-04-15T15:42:05;11.80;73.10
360;DHT22;168;48.872;9.226;2023-04-15T15:44:32;11.80;74.90
360;DHT22;168;48.872;9.226;2023-04-15T15:47:01;11.70;75.50
360;DHT22;168;48.872;9.226;2023-04-15T15:49:30;11.60;75.70
360;DHT22;168;48.872;9.226;2023-04-15T15:51:58;11.50;78.00
360;DHT22;168;48.872;9.226;2023-04-15T15:54:26;11.50;76.90
360;DHT22;168;48.872;9.226;2023-04-15T15:56:54;11.50;80.90
360;DHT22;168;48.872;9.226;2023-04-15T15:59:23;11.00;87.00
360;DHT22;168;48.872;9.226;2023-04-15T16:01:52;10.40;91.90
360;DHT22;168;48.872;9.226;2023-04-15T16:04:19;10.00;94.90
360;DHT22;168;48.872;9.226;2023-04-15T16:06:48;9.70;95.70
360;DHT22;168;48.872;9.226;2023-04-15T16:09:16;9.50;95.60
360;DHT22;168;48.872;9.226;2023-04-15T16:11:43;9.40;94.90
360;DHT22;168;48.872;9.226;2023-04-15T16:14:11;9.40;93.60
360;DHT22;168;48.872;9.226;2023-04-15T16:16:39;9.40;93.80
360;DHT22;168;48.872;9.226;2023-04-15T16:19:06;9.40;93.30
360;DHT22;168;48.872;9.226;2023-04-15T16:21:33;9.30;92.80
360;DHT22;168;48.872;9.226;2023-04-15T16:24:02;9.30;91.30
360;DHT22;168;48.872;9.226;2023-04-15T16:26:30;9.50;90.70
360;DHT22;168;48.872;9.226;2023-04-15T16:28:57;9.50;92.30
360;DHT22;168;48.872;9.226;2023-04-15T16:31:25;9.40;91.30
360;DHT22;168;48.872;9.226;2023-04-15T16:33:52;9.40;91.50
360;DHT22;168;48.872;9.226;2023-04-15T16:36:20;9.40;90.30
360;DHT22;168;48.872;9.226;2023-04-15T16:38:47;9.40;89.30
360;DHT22;168;48.872;9.226;2023-04-15T16:41:16;9.40;88.90
360;DHT22;168;48.872;9.226;2023-04-15T16:43:43;9.50;89.70
360;DHT22;168;48.872;9.226;2023-04-15T16:46:11;9.50;89.20
360;DHT22;168;48.872;9.226;2023-04-15T16:48:38;9.50;90.40
360;DHT22;168;48.872;9.226;2023-04-15T16:51:06;9.40;89.70
360;DHT22;168;48.872;9.226;2023-04-15T16:53:34;9.40;90.70
360;DHT22;168;48.872;9.226;2023-04-15T16:56:01;9.30;89.00